createdAt,value
2018-07-27T00:00:19.197Z,67.21
2018-07-27T00:01:19.149Z,66.82
2018-07-27T00:03:11.957Z,67.49
2018-07-27T00:04:11.982Z,68.08
2018-07-27T00:06:04.766Z,67.69
2018-07-27T00:07:04.723Z,67.69
2018-07-27T00:08:57.562Z,67.79
2018-07-27T00:09:57.518Z,67.88
2018-07-27T00:11:50.348Z,67.79
2018-07-27T00:12:50.313Z,67.75
2018-07-27T00:14:43.617Z,68.24
2018-07-27T00:15:43.592Z,68.43
2018-07-27T00:17:36.432Z,67.98
2018-07-27T00:18:36.389Z,68.14
2018-07-27T00:20:29.204Z,68.62
2018-07-27T00:21:29.168Z,68.04
2018-07-27T00:23:22.004Z,68.82
2018-07-27T00:24:21.959Z,68.62
2018-07-27T00:26:14.778Z,68.72
2018-07-27T00:27:14.742Z,69.01
2018-07-27T00:29:07.575Z,68.72
2018-07-27T00:30:07.532Z,68.72
2018-07-27T00:32:00.372Z,68.24
2018-07-27T00:33:00.322Z,68.62
2018-07-27T00:34:53.137Z,68.62
2018-07-27T00:35:53.136Z,68.43
2018-07-27T00:37:45.946Z,69.10
2018-07-27T00:38:45.902Z,68.82
2018-07-27T00:40:38.710Z,68.82
2018-07-27T00:41:38.690Z,69.01
2018-07-27T00:43:31.515Z,69.10
2018-07-27T00:44:31.471Z,69.01
2018-07-27T00:46:24.294Z,68.82
2018-07-27T00:47:24.265Z,68.82
2018-07-27T00:49:17.099Z,69.40
2018-07-27T00:50:17.047Z,68.88
2018-07-27T00:52:09.886Z,69.65
2018-07-27T00:53:09.875Z,69.94
2018-07-27T00:55:03.182Z,69.74
2018-07-27T00:56:03.136Z,70.14
2018-07-27T00:57:55.976Z,70.14
2018-07-27T00:58:55.914Z,70.32
2018-07-27T01:00:48.749Z,70.72
2018-07-27T01:01:48.721Z,70.81
2018-07-27T01:03:41.546Z,70.23
2018-07-27T01:04:41.509Z,70.52
2018-07-27T01:06:34.342Z,70.78
2018-07-27T01:07:34.299Z,70.78
2018-07-27T01:09:27.117Z,70.78
2018-07-27T01:10:27.077Z,70.87
2018-07-27T01:12:20.387Z,71.45
2018-07-27T01:13:20.360Z,71.36
2018-07-27T01:15:13.201Z,70.78
2018-07-27T01:16:13.150Z,70.97
2018-07-27T01:18:06.010Z,70.97
2018-07-27T01:19:05.937Z,71.55
2018-07-27T01:20:58.767Z,71.55
2018-07-27T01:21:58.720Z,71.45
2018-07-27T01:23:51.532Z,71.45
2018-07-27T01:24:51.515Z,71.45
2018-07-27T01:26:44.344Z,71.55
2018-07-27T01:27:44.298Z,71.26
2018-07-27T01:29:37.631Z,71.94
2018-07-27T01:30:37.590Z,71.51
2018-07-27T01:32:30.411Z,71.61
2018-07-27T01:33:30.375Z,71.61
2018-07-27T01:35:23.211Z,71.22
2018-07-27T01:36:23.175Z,71.32
2018-07-27T01:38:15.988Z,71.42
2018-07-27T01:39:15.958Z,71.61
2018-07-27T01:41:08.791Z,71.51
2018-07-27T01:42:08.756Z,71.51
2018-07-27T01:44:02.070Z,71.70
2018-07-27T01:45:02.033Z,71.51
2018-07-27T01:46:54.872Z,71.32
2018-07-27T01:47:54.812Z,71.51
2018-07-27T01:49:47.645Z,71.51
2018-07-27T01:50:47.603Z,71.42
2018-07-27T01:52:40.432Z,71.70
2018-07-27T01:53:40.388Z,71.70
2018-07-27T01:55:33.226Z,71.70
2018-07-27T01:56:33.176Z,71.70
2018-07-27T01:58:25.985Z,71.70
2018-07-27T01:59:25.961Z,72.28
2018-07-27T02:01:18.782Z,72.28
2018-07-27T02:02:18.757Z,72.28
2018-07-27T02:04:11.564Z,72.28
2018-07-27T02:05:11.531Z,72.15
2018-07-27T02:07:04.361Z,72.34
2018-07-27T02:08:04.321Z,71.96
2018-07-27T02:09:57.137Z,72.92
2018-07-27T02:10:57.110Z,72.92
2018-07-27T02:12:49.941Z,72.83
2018-07-27T02:13:49.877Z,73.21
2018-07-27T02:15:42.723Z,73.41
2018-07-27T02:16:42.677Z,73.85
2018-07-27T02:18:35.495Z,73.31
2018-07-27T02:19:35.458Z,73.21
2018-07-27T02:21:28.289Z,73.41
2018-07-27T02:22:28.249Z,73.47
2018-07-27T02:24:21.057Z,73.47
2018-07-27T02:25:21.033Z,73.21
2018-07-27T02:27:13.854Z,73.50
2018-07-27T02:28:13.813Z,73.47
2018-07-27T02:30:06.629Z,73.27
2018-07-27T02:31:06.604Z,73.75
2018-07-27T02:32:59.438Z,73.08
2018-07-27T02:33:59.380Z,73.47
2018-07-27T02:35:52.702Z,73.66
2018-07-27T02:36:52.674Z,73.66
2018-07-27T02:38:45.504Z,74.05
2018-07-27T02:39:45.463Z,73.66
2018-07-27T02:41:38.268Z,73.47
2018-07-27T02:42:38.250Z,74.14
2018-07-27T02:44:31.078Z,74.05
2018-07-27T02:45:31.038Z,74.14
2018-07-27T02:47:23.863Z,73.66
2018-07-27T02:48:23.813Z,73.57
2018-07-27T02:50:16.623Z,73.37
2018-07-27T02:51:16.647Z,73.47
2018-07-27T02:53:09.955Z,73.66
2018-07-27T02:54:09.880Z,74.43
2018-07-27T02:56:02.700Z,74.33
2018-07-27T02:57:02.678Z,74.24
2018-07-27T02:58:55.508Z,74.43
2018-07-27T02:59:55.452Z,74.33
2018-07-27T03:01:48.273Z,74.24
2018-07-27T03:02:48.256Z,74.24
2018-07-27T03:04:41.084Z,74.43
2018-07-27T03:05:41.034Z,74.14
2018-07-27T03:07:33.861Z,75.20
2018-07-27T03:08:33.813Z,75.16
2018-07-27T03:10:26.653Z,74.91
2018-07-27T03:11:26.599Z,74.88
2018-07-27T03:13:19.430Z,75.36
2018-07-27T03:14:19.385Z,75.55
2018-07-27T03:16:12.224Z,74.68
2018-07-27T03:17:12.185Z,74.97
2018-07-27T03:19:05.510Z,74.88
2018-07-27T03:20:05.465Z,74.78
2018-07-27T03:21:58.274Z,74.58
2018-07-27T03:22:58.251Z,74.78
2018-07-27T03:24:51.569Z,74.78
2018-07-27T03:25:51.521Z,75.26
2018-07-27T03:27:44.349Z,74.78
2018-07-27T03:28:44.311Z,75.07
2018-07-27T03:30:37.155Z,74.88
2018-07-27T03:31:37.097Z,74.88
2018-07-27T03:33:29.911Z,74.93
2018-07-27T03:34:29.880Z,74.93
2018-07-27T03:36:22.720Z,74.93
2018-07-27T03:37:22.671Z,74.49
2018-07-27T03:39:15.497Z,74.20
2018-07-27T03:40:15.458Z,74.26
2018-07-27T03:42:08.327Z,74.45
2018-07-27T03:43:08.239Z,74.84
2018-07-27T03:45:01.070Z,74.84
2018-07-27T03:46:01.020Z,74.55
2018-07-27T03:47:53.837Z,74.55
2018-07-27T03:48:53.805Z,73.97
2018-07-27T03:50:47.132Z,74.36
2018-07-27T03:51:47.085Z,74.74
2018-07-27T03:53:40.409Z,73.97
2018-07-27T03:54:40.360Z,74.36
2018-07-27T03:56:33.182Z,74.36
2018-07-27T03:57:33.152Z,74.26
2018-07-27T03:59:25.973Z,74.26
2018-07-27T04:00:25.924Z,74.07
2018-07-27T04:02:18.794Z,73.78
2018-07-27T04:03:18.716Z,73.88
2018-07-27T04:05:12.043Z,73.68
2018-07-27T04:06:12.008Z,73.78
2018-07-27T04:08:05.306Z,73.88
2018-07-27T04:09:05.283Z,73.78
2018-07-27T04:10:58.601Z,73.78
2018-07-27T04:11:58.558Z,73.78
2018-07-27T04:13:51.858Z,73.97
2018-07-27T04:14:51.841Z,73.78
2018-07-27T04:16:44.653Z,73.49
2018-07-27T04:17:44.608Z,73.88
2018-07-27T04:19:37.426Z,73.97
2018-07-27T04:20:37.401Z,73.88
2018-07-27T04:22:30.293Z,73.88
2018-07-27T04:23:30.188Z,73.78
2018-07-27T04:25:22.999Z,73.39
2018-07-27T04:26:22.981Z,73.10
2018-07-27T04:28:15.790Z,73.01
2018-07-27T04:29:15.753Z,73.20
2018-07-27T04:31:08.574Z,73.39
2018-07-27T04:32:08.529Z,73.01
2018-07-27T04:34:01.859Z,73.68
2018-07-27T04:35:01.815Z,73.58
2018-07-27T04:36:54.652Z,73.49
2018-07-27T04:37:54.594Z,73.88
2018-07-27T04:39:47.414Z,73.20
2018-07-27T04:40:47.398Z,73.30
2018-07-27T04:42:40.242Z,72.91
2018-07-27T04:43:40.166Z,73.20
2018-07-27T04:45:32.993Z,73.01
2018-07-27T04:46:32.963Z,72.72
2018-07-27T04:48:25.798Z,72.91
2018-07-27T04:49:25.787Z,72.85
2018-07-27T04:51:18.592Z,72.72
2018-07-27T04:52:18.523Z,73.05
2018-07-27T04:54:11.352Z,72.85
2018-07-27T04:55:11.317Z,72.95
2018-07-27T04:57:04.612Z,72.56
2018-07-27T04:58:04.597Z,72.75
2018-07-27T04:59:57.418Z,72.66
2018-07-27T05:00:57.372Z,72.95
2018-07-27T05:02:50.207Z,72.85
2018-07-27T05:03:50.163Z,73.14
2018-07-27T05:05:42.984Z,72.08
2018-07-27T05:06:42.958Z,72.08
2018-07-27T05:08:35.777Z,71.89
2018-07-27T05:09:35.738Z,72.08
2018-07-27T05:11:28.547Z,72.08
2018-07-27T05:12:28.522Z,72.27
2018-07-27T05:14:21.363Z,72.18
2018-07-27T05:15:21.304Z,71.79
2018-07-27T05:17:14.118Z,71.60
2018-07-27T05:18:14.134Z,72.08
2018-07-27T05:20:06.936Z,71.50
2018-07-27T05:21:06.878Z,71.60
2018-07-27T05:22:59.702Z,72.02
2018-07-27T05:23:59.669Z,71.89
2018-07-27T05:25:52.985Z,71.83
2018-07-27T05:26:52.939Z,71.73
2018-07-27T05:28:46.264Z,71.73
2018-07-27T05:29:46.222Z,71.64
2018-07-27T05:31:39.046Z,71.54
2018-07-27T05:32:39.004Z,71.34
2018-07-27T05:34:31.854Z,71.92
2018-07-27T05:35:31.789Z,71.34
2018-07-27T05:37:24.615Z,70.96
2018-07-27T05:38:24.580Z,71.06
2018-07-27T05:40:17.904Z,70.86
2018-07-27T05:41:17.864Z,70.42
2018-07-27T05:43:10.679Z,70.19
2018-07-27T05:44:10.642Z,70.90
2018-07-27T05:46:03.968Z,71.00
2018-07-27T05:47:03.987Z,71.00
2018-07-27T05:48:56.738Z,70.70
2018-07-27T05:49:56.704Z,70.70
2018-07-27T05:51:50.028Z,70.13
2018-07-27T05:52:50.014Z,70.42
2018-07-27T05:54:42.814Z,70.80
2018-07-27T05:55:42.779Z,70.42
2018-07-27T05:57:35.600Z,70.74
2018-07-27T05:58:35.560Z,70.36
2018-07-27T06:00:28.383Z,69.87
2018-07-27T06:01:28.349Z,70.54
2018-07-27T06:03:21.159Z,69.68
2018-07-27T06:04:21.128Z,69.78
2018-07-27T06:06:13.963Z,68.62
2018-07-27T06:07:13.918Z,68.52
2018-07-27T06:09:07.235Z,67.27
2018-07-27T06:10:07.214Z,67.46
2018-07-27T06:12:00.041Z,67.40
2018-07-27T06:12:59.994Z,67.40
2018-07-27T06:14:52.816Z,67.01
2018-07-27T06:15:52.774Z,67.01
2018-07-27T06:17:45.650Z,66.33
2018-07-27T06:18:45.560Z,66.33
2018-07-27T06:20:38.386Z,66.53
2018-07-27T06:21:38.356Z,64.72
2018-07-27T06:23:31.192Z,64.63
2018-07-27T06:24:31.161Z,64.63
2018-07-27T06:26:24.495Z,63.47
2018-07-27T06:27:24.441Z,63.56
2018-07-27T06:29:17.284Z,62.89
2018-07-27T06:30:17.226Z,62.82
2018-07-27T06:32:10.053Z,61.37
2018-07-27T06:33:10.002Z,60.89
2018-07-27T06:35:02.816Z,60.99
2018-07-27T06:36:02.796Z,60.69
2018-07-27T06:37:55.636Z,60.02
2018-07-27T06:38:55.571Z,60.50
2018-07-27T06:40:48.398Z,60.14
2018-07-27T06:41:48.367Z,59.18
2018-07-27T06:43:41.187Z,59.08
2018-07-27T06:44:41.156Z,58.12
2018-07-27T06:46:33.968Z,55.41
2018-07-27T06:47:33.945Z,57.15
2018-07-27T06:49:27.787Z,56.98
2018-07-27T06:50:27.727Z,56.98
2018-07-27T06:52:21.128Z,56.21
2018-07-27T06:53:21.022Z,55.73
2018-07-27T06:55:13.839Z,54.95
2018-07-27T06:56:13.822Z,54.47
2018-07-27T06:58:06.649Z,52.36
2018-07-27T06:59:06.609Z,52.08
2018-07-27T07:00:59.433Z,51.20
2018-07-27T07:01:59.394Z,50.82
2018-07-27T07:03:52.735Z,50.84
2018-07-27T07:04:52.674Z,51.62
2018-07-27T07:06:45.523Z,48.81
2018-07-27T07:07:45.473Z,49.29
2018-07-27T07:09:38.788Z,49.22
2018-07-27T07:10:38.758Z,49.87
2018-07-27T07:12:31.604Z,49.02
2018-07-27T07:13:31.541Z,49.32
2018-07-27T07:15:24.390Z,48.74
2018-07-27T07:16:24.340Z,48.06
2018-07-27T07:18:17.159Z,48.25
2018-07-27T07:19:17.132Z,49.12
2018-07-27T07:21:10.485Z,46.92
2018-07-27T07:22:10.436Z,47.02
2018-07-27T07:24:03.785Z,46.82
2018-07-27T07:25:03.752Z,46.43
2018-07-27T07:26:57.076Z,47.02
2018-07-27T07:27:57.026Z,47.02
2018-07-27T07:29:50.334Z,46.55
2018-07-27T07:30:50.304Z,46.45
2018-07-27T07:32:43.135Z,46.07
2018-07-27T07:33:43.104Z,46.94
2018-07-27T07:35:35.941Z,45.51
2018-07-27T07:36:35.895Z,45.61
2018-07-27T07:38:28.737Z,44.92
2018-07-27T07:39:28.686Z,45.31
2018-07-27T07:41:21.512Z,45.24
2018-07-27T07:42:21.481Z,45.04
2018-07-27T07:44:14.331Z,44.95
2018-07-27T07:45:14.288Z,44.95
2018-07-27T07:47:07.134Z,43.80
2018-07-27T07:48:07.085Z,44.75
2018-07-27T07:49:59.901Z,44.68
2018-07-27T07:50:59.878Z,45.07
2018-07-27T07:52:52.721Z,43.90
2018-07-27T07:53:52.666Z,43.61
2018-07-27T07:55:45.980Z,42.93
2018-07-27T07:56:45.957Z,43.34
2018-07-27T07:58:38.831Z,44.31
2018-07-27T07:59:38.765Z,43.24
2018-07-27T08:01:31.611Z,43.15
2018-07-27T08:02:31.558Z,43.05
2018-07-27T08:04:24.454Z,43.05
2018-07-27T08:05:24.394Z,42.36
2018-07-27T08:07:17.691Z,42.85
2018-07-27T08:08:17.656Z,42.78
2018-07-27T08:10:10.490Z,43.16
2018-07-27T08:11:10.497Z,42.39
2018-07-27T08:13:03.267Z,41.93
2018-07-27T08:14:03.237Z,41.83
2018-07-27T08:15:56.072Z,41.44
2018-07-27T08:16:56.028Z,42.11
2018-07-27T08:18:48.866Z,41.94
2018-07-27T08:19:48.839Z,41.85
2018-07-27T08:21:41.657Z,40.58
2018-07-27T08:22:41.627Z,40.88
2018-07-27T08:24:34.472Z,39.62
2018-07-27T08:25:34.424Z,40.01
2018-07-27T08:27:27.237Z,40.11
2018-07-27T08:28:27.222Z,39.62
2018-07-27T08:30:20.061Z,40.13
2018-07-27T08:31:20.011Z,39.75
2018-07-27T08:33:12.842Z,38.79
2018-07-27T08:34:12.822Z,38.69
2018-07-27T08:36:05.668Z,39.28
2018-07-27T08:37:05.612Z,39.08
2018-07-27T08:38:58.521Z,39.28
2018-07-27T08:39:58.440Z,39.47
2018-07-27T08:41:51.279Z,38.98
2018-07-27T08:42:51.241Z,38.89
2018-07-27T08:44:44.573Z,38.98
2018-07-27T08:45:44.531Z,38.98
2018-07-27T08:47:37.359Z,38.12
2018-07-27T08:48:37.334Z,38.40
2018-07-27T08:50:30.173Z,38.51
2018-07-27T08:51:30.126Z,37.73
2018-07-27T08:53:22.957Z,37.83
2018-07-27T08:54:22.935Z,37.73
2018-07-27T08:56:16.280Z,37.93
2018-07-27T08:57:16.228Z,38.24
2018-07-27T08:59:09.149Z,37.37
2018-07-27T09:00:09.134Z,37.07
2018-07-27T09:02:02.473Z,37.07
2018-07-27T09:03:02.440Z,37.19
2018-07-27T09:04:55.764Z,37.19
2018-07-27T09:05:55.730Z,37.57
2018-07-27T09:07:49.073Z,36.43
2018-07-27T09:08:49.036Z,36.62
2018-07-27T09:10:42.390Z,36.52
2018-07-27T09:11:42.342Z,36.23
2018-07-27T09:13:35.679Z,36.82
2018-07-27T09:14:35.656Z,36.23
2018-07-27T09:16:28.495Z,36.05
2018-07-27T09:17:28.450Z,35.56
2018-07-27T09:19:21.280Z,35.66
2018-07-27T09:20:21.265Z,35.48
2018-07-27T09:22:14.100Z,34.80
2018-07-27T09:23:14.060Z,34.68
2018-07-27T09:25:07.642Z,34.41
2018-07-27T09:26:07.345Z,34.21
2018-07-27T09:28:00.688Z,34.70
2018-07-27T09:29:00.643Z,34.99
2018-07-27T09:30:53.976Z,34.33
2018-07-27T09:31:53.970Z,34.23
2018-07-27T09:33:47.303Z,33.54
2018-07-27T09:34:47.250Z,33.54
2018-07-27T09:36:40.077Z,33.75
2018-07-27T09:37:40.056Z,34.13
2018-07-27T09:39:33.405Z,34.44
2018-07-27T09:40:33.375Z,33.17
2018-07-27T09:42:26.715Z,33.46
2018-07-27T09:43:26.666Z,32.87
2018-07-27T09:45:20.012Z,32.89
2018-07-27T09:46:19.988Z,32.01
2018-07-27T09:48:13.317Z,31.71
2018-07-27T09:49:13.264Z,31.23
2018-07-27T09:51:06.602Z,30.26
2018-07-27T09:52:06.590Z,30.65
2018-07-27T09:53:59.436Z,30.75
2018-07-27T09:54:59.385Z,29.87
2018-07-27T09:56:52.221Z,30.65
2018-07-27T09:57:52.217Z,29.97
2018-07-27T09:59:45.039Z,29.38
2018-07-27T10:00:44.985Z,30.18
2018-07-27T10:02:37.820Z,29.59
2018-07-27T10:03:37.824Z,29.69
2018-07-27T10:05:30.657Z,29.70
2018-07-27T10:06:30.629Z,29.62
2018-07-27T10:08:23.451Z,27.00
2018-07-27T10:09:23.437Z,26.72
2018-07-27T10:11:16.305Z,24.98
2018-07-27T10:12:16.265Z,24.22
2018-07-27T10:14:09.623Z,22.86
2018-07-27T10:15:09.584Z,22.38
2018-07-27T10:17:02.454Z,21.82
2018-07-27T10:18:02.441Z,20.65
2018-07-27T10:19:55.745Z,19.79
2018-07-27T10:20:55.735Z,19.31
2018-07-27T10:22:49.125Z,18.33
2018-07-27T10:23:49.067Z,17.36
2018-07-27T10:25:42.486Z,16.09
2018-07-27T10:26:42.485Z,16.09
2018-07-27T10:28:35.332Z,14.61
2018-07-27T10:29:35.300Z,15.12
2018-07-27T10:31:28.154Z,13.24
2018-07-27T10:32:28.130Z,13.94
2018-07-27T10:34:21.041Z,13.25
2018-07-27T10:35:20.970Z,13.24
2018-07-27T10:37:14.341Z,14.15
2018-07-27T10:38:14.325Z,13.36
2018-07-27T10:40:07.657Z,12.77
2018-07-27T10:41:07.642Z,12.77
2018-07-27T10:43:01.013Z,11.78
2018-07-27T10:44:01.026Z,11.88
2018-07-27T10:45:54.362Z,11.79
2018-07-27T10:46:54.322Z,11.40
2018-07-27T10:48:47.696Z,11.79
2018-07-27T10:49:47.671Z,12.38
2018-07-27T10:51:41.028Z,12.39
2018-07-27T10:52:41.011Z,13.39
2018-07-27T10:54:33.867Z,12.30
2018-07-27T10:55:33.868Z,12.99
2018-07-27T10:57:26.736Z,12.51
2018-07-27T10:58:26.693Z,12.80
2018-07-27T11:00:19.555Z,12.81
2018-07-27T11:01:19.540Z,13.40
2018-07-27T11:03:12.407Z,12.19
2018-07-27T11:04:12.378Z,12.29
2018-07-27T11:06:05.236Z,12.70
2018-07-27T11:07:05.229Z,12.38
2018-07-27T11:08:58.093Z,12.60
2018-07-27T11:09:58.072Z,12.60
2018-07-27T11:11:50.967Z,12.41
2018-07-27T11:12:50.918Z,11.81
2018-07-27T11:14:43.776Z,11.31
2018-07-27T11:15:43.773Z,11.71
2018-07-27T11:17:36.709Z,11.71
2018-07-27T11:18:36.596Z,11.61
2018-07-27T11:20:29.459Z,10.52
2018-07-27T11:21:29.435Z,11.22
2018-07-27T11:23:22.301Z,10.43
2018-07-27T11:24:22.504Z,11.13
2018-07-27T11:26:15.163Z,10.53
2018-07-27T11:27:15.139Z,10.64
2018-07-27T11:29:08.065Z,11.24
2018-07-27T11:30:07.975Z,10.44
2018-07-27T11:32:00.860Z,10.43
2018-07-27T11:33:00.831Z,10.23
2018-07-27T11:34:53.694Z,10.61
2018-07-27T11:35:53.674Z,10.42
2018-07-27T11:37:46.531Z,10.82
2018-07-27T11:38:46.524Z,10.22
2018-07-27T11:40:39.392Z,10.33
2018-07-27T11:41:39.358Z,10.03
2018-07-27T11:43:32.205Z,9.73
2018-07-27T11:44:32.195Z,10.12
2018-07-27T11:46:25.083Z,10.82
2018-07-27T11:47:25.055Z,9.72
2018-07-27T11:49:17.900Z,10.22
2018-07-27T11:50:17.894Z,9.93
2018-07-27T11:52:10.769Z,8.33
2018-07-27T11:53:10.775Z,7.73
2018-07-27T11:55:03.590Z,8.44
2018-07-27T11:56:03.565Z,8.34
2018-07-27T11:57:56.450Z,8.83
2018-07-27T11:58:56.425Z,9.74
2018-07-27T12:00:50.269Z,8.13
2018-07-27T12:01:50.268Z,8.43
2018-07-27T12:03:43.126Z,9.39
2018-07-27T12:04:43.106Z,9.10
2018-07-27T12:06:35.962Z,10.41
2018-07-27T12:07:35.939Z,10.11
2018-07-27T12:09:28.810Z,9.92
2018-07-27T12:10:28.783Z,8.92
2018-07-27T12:12:21.654Z,8.92
2018-07-27T12:13:21.623Z,9.53
2018-07-27T12:15:14.872Z,9.53
2018-07-27T12:16:14.460Z,9.83
2018-07-27T12:18:07.336Z,9.94
2018-07-27T12:19:07.318Z,10.04
2018-07-27T12:21:00.314Z,9.12
2018-07-27T12:22:00.165Z,9.52
2018-07-27T12:23:53.039Z,8.83
2018-07-27T12:24:52.996Z,9.53
2018-07-27T12:26:45.889Z,9.34
2018-07-27T12:27:45.855Z,8.83
2018-07-27T12:29:38.719Z,9.24
2018-07-27T12:30:38.694Z,8.53
2018-07-27T12:32:31.558Z,8.63
2018-07-27T12:33:31.540Z,8.13
2018-07-27T12:35:24.438Z,9.03
2018-07-27T12:36:24.385Z,8.94
2018-07-27T12:38:17.242Z,8.23
2018-07-27T12:39:17.230Z,7.64
2018-07-27T12:41:10.097Z,7.64
2018-07-27T12:42:10.085Z,8.24
2018-07-27T12:44:02.952Z,8.34
2018-07-27T12:45:02.964Z,7.54
2018-07-27T12:46:55.771Z,7.34
2018-07-27T12:47:55.767Z,7.83
2018-07-27T12:49:48.643Z,7.83
2018-07-27T12:50:48.610Z,8.34
2018-07-27T12:52:41.481Z,8.34
2018-07-27T12:53:41.455Z,9.05
2018-07-27T12:55:34.330Z,8.04
2018-07-27T12:56:34.301Z,8.14
2018-07-27T12:58:27.166Z,8.35
2018-07-27T12:59:27.220Z,7.75
2018-07-27T13:01:20.016Z,8.13
2018-07-27T13:02:19.993Z,8.13
2018-07-27T13:04:12.851Z,8.03
2018-07-27T13:05:12.858Z,8.33
2018-07-27T13:07:05.715Z,9.12
2018-07-27T13:08:05.685Z,9.03
2018-07-27T13:09:58.530Z,8.63
2018-07-27T13:10:58.519Z,8.33
2018-07-27T13:12:51.391Z,8.33
2018-07-27T13:13:51.361Z,8.83
2018-07-27T13:15:44.245Z,8.83
2018-07-27T13:16:44.207Z,8.14
2018-07-27T13:18:38.044Z,8.03
2018-07-27T13:19:38.044Z,8.64
2018-07-27T13:21:30.895Z,7.13
2018-07-27T13:22:31.061Z,7.53
2018-07-27T13:25:23.760Z,7.54
2018-07-27T13:27:16.597Z,7.94
2018-07-27T13:28:16.562Z,6.83
2018-07-27T13:30:09.419Z,7.23
2018-07-27T13:31:09.518Z,6.73
2018-07-27T13:33:02.271Z,7.43
2018-07-27T13:34:02.244Z,6.63
2018-07-27T13:35:55.128Z,6.73
2018-07-27T13:36:55.091Z,5.92
2018-07-27T13:38:47.952Z,7.82
2018-07-27T13:39:47.924Z,7.62
2018-07-27T13:41:40.804Z,7.82
2018-07-27T13:42:40.768Z,7.93
2018-07-27T13:44:33.627Z,8.14
2018-07-27T13:45:33.613Z,7.94
2018-07-27T13:47:26.505Z,6.63
2018-07-27T13:48:26.453Z,7.23
2018-07-27T13:50:19.304Z,7.64
2018-07-27T13:51:19.292Z,7.34
2018-07-27T13:53:12.164Z,7.34
2018-07-27T13:54:12.134Z,6.83
2018-07-27T13:56:04.985Z,6.62
2018-07-27T13:57:04.972Z,6.82
2018-07-27T13:58:57.841Z,7.63
2018-07-27T13:59:57.814Z,6.63
2018-07-27T14:01:50.659Z,6.83
2018-07-27T14:02:50.665Z,6.02
2018-07-27T14:04:43.527Z,6.82
2018-07-27T14:05:43.498Z,7.23
2018-07-27T14:07:36.353Z,7.02
2018-07-27T14:08:36.345Z,6.72
2018-07-27T14:10:29.209Z,7.72
2018-07-27T14:11:29.180Z,7.72
2018-07-27T14:13:22.064Z,7.12
2018-07-27T14:14:22.035Z,6.02
2018-07-27T14:16:14.854Z,6.62
2018-07-27T14:17:14.859Z,7.33
2018-07-27T14:19:07.722Z,6.73
2018-07-27T14:20:07.683Z,7.33
2018-07-27T14:22:00.541Z,6.13
2018-07-27T14:23:00.535Z,5.02
2018-07-27T14:24:53.434Z,5.91
2018-07-27T14:25:53.410Z,5.71
2018-07-27T14:27:46.260Z,7.21
2018-07-27T14:28:46.260Z,6.62
2018-07-27T14:30:39.101Z,6.72
2018-07-27T14:31:39.084Z,7.53
2018-07-27T14:33:31.946Z,5.91
2018-07-27T14:34:31.931Z,6.70
2018-07-27T14:36:24.794Z,7.00
2018-07-27T14:37:24.776Z,6.90
2018-07-27T14:39:17.645Z,7.71
2018-07-27T14:40:17.596Z,7.21
2018-07-27T14:42:10.446Z,7.81
2018-07-27T14:43:10.438Z,7.71
2018-07-27T14:45:03.342Z,8.21
2018-07-27T14:46:03.268Z,8.11
2018-07-27T14:47:56.125Z,7.91
2018-07-27T14:48:56.114Z,8.11
2018-07-27T14:50:48.975Z,7.91
2018-07-27T14:51:48.941Z,8.31
2018-07-27T14:53:41.803Z,7.81
2018-07-27T14:54:41.771Z,8.11
2018-07-27T14:56:34.639Z,8.11
2018-07-27T14:57:34.614Z,7.41
2018-07-27T14:59:27.456Z,7.30
2018-07-27T15:00:27.441Z,7.70
2018-07-27T15:02:20.300Z,7.60
2018-07-27T15:03:20.264Z,7.69
2018-07-27T15:05:13.145Z,8.38
2018-07-27T15:06:13.103Z,7.88
2018-07-27T15:08:05.952Z,8.27
2018-07-27T15:09:05.930Z,7.97
2018-07-27T15:10:58.797Z,8.67
2018-07-27T15:11:58.788Z,8.17
2018-07-27T15:13:51.625Z,8.97
2018-07-27T15:14:51.594Z,8.97
2018-07-27T15:16:44.440Z,8.48
2018-07-27T15:17:44.408Z,8.58
2018-07-27T15:19:37.271Z,8.88
2018-07-27T15:20:37.253Z,9.38
2018-07-27T15:22:30.155Z,8.89
2018-07-27T15:23:30.068Z,7.69
2018-07-27T15:25:22.928Z,7.68
2018-07-27T15:26:22.903Z,8.37
2018-07-27T15:28:15.822Z,8.88
2018-07-27T15:29:15.805Z,8.58
2018-07-27T15:31:08.686Z,8.39
2018-07-27T15:32:08.615Z,7.69
2018-07-27T15:34:01.468Z,8.08
2018-07-27T15:35:01.459Z,8.18
2018-07-27T15:36:54.298Z,8.69
2018-07-27T15:37:54.276Z,9.19
2018-07-27T15:39:47.138Z,8.48
2018-07-27T15:40:47.104Z,9.28
2018-07-27T15:42:39.954Z,8.98
2018-07-27T15:43:39.921Z,8.69
2018-07-27T15:45:32.773Z,8.29
2018-07-27T15:46:32.762Z,8.19
2018-07-27T15:48:25.724Z,8.09
2018-07-27T15:49:25.599Z,7.99
2018-07-27T15:51:18.433Z,8.09
2018-07-27T15:52:18.413Z,8.59
2018-07-27T15:54:11.287Z,8.09
2018-07-27T15:55:11.242Z,7.70
2018-07-27T15:57:04.100Z,8.90
2018-07-27T15:58:04.074Z,8.49
2018-07-27T15:59:56.917Z,8.29
2018-07-27T16:00:56.898Z,8.19
2018-07-27T16:02:50.758Z,8.29
2018-07-27T16:03:50.728Z,7.29
2018-07-27T16:05:43.568Z,8.69
2018-07-27T16:06:43.559Z,7.20
2018-07-27T16:08:36.423Z,7.30
2018-07-27T16:09:36.403Z,7.00
2018-07-27T16:11:29.369Z,7.69
2018-07-27T16:12:29.328Z,7.39
2018-07-27T16:14:22.210Z,7.39
2018-07-27T16:15:22.165Z,7.59
2018-07-27T16:17:15.015Z,6.79
2018-07-27T16:18:14.997Z,6.78
2018-07-27T16:20:07.868Z,7.78
2018-07-27T16:21:07.817Z,7.57
2018-07-27T16:23:00.765Z,8.07
2018-07-27T16:24:00.683Z,8.37
2018-07-27T16:25:53.534Z,7.58
2018-07-27T16:26:53.510Z,7.58
2018-07-27T16:28:46.375Z,8.48
2018-07-27T16:29:46.328Z,8.28
2018-07-27T16:31:39.195Z,7.98
2018-07-27T16:32:39.173Z,7.29
2018-07-27T16:34:32.064Z,7.09
2018-07-27T16:35:31.989Z,7.98
2018-07-27T16:37:24.840Z,7.58
2018-07-27T16:38:24.815Z,8.28
2018-07-27T16:40:17.699Z,7.39
2018-07-27T16:41:17.645Z,7.18
2018-07-27T16:43:10.510Z,7.68
2018-07-27T16:44:10.479Z,7.78
2018-07-27T16:46:03.355Z,8.37
2018-07-27T16:47:03.335Z,8.37
2018-07-27T16:48:56.171Z,8.47
2018-07-27T16:49:56.155Z,8.47
2018-07-27T16:51:49.015Z,8.48
2018-07-27T16:52:49.031Z,8.37
2018-07-27T16:54:41.840Z,8.37
2018-07-27T16:55:41.812Z,8.37
2018-07-27T16:57:34.651Z,8.87
2018-07-27T16:58:34.638Z,8.57
2018-07-27T17:00:27.499Z,8.27
2018-07-27T17:01:27.455Z,8.27
2018-07-27T17:03:20.301Z,8.27
2018-07-27T17:04:20.290Z,8.37
2018-07-27T17:06:13.210Z,8.07
2018-07-27T17:07:13.125Z,8.27
2018-07-27T17:09:05.967Z,8.56
2018-07-27T17:10:05.945Z,8.66
2018-07-27T17:11:58.798Z,8.96
2018-07-27T17:12:58.760Z,9.66
2018-07-27T17:14:51.612Z,8.95
2018-07-27T17:15:51.577Z,8.86
2018-07-27T17:17:44.432Z,9.45
2018-07-27T17:18:44.398Z,10.14
2018-07-27T17:20:37.277Z,9.64
2018-07-27T17:21:37.222Z,9.84
2018-07-27T17:23:30.082Z,10.24
2018-07-27T17:24:30.046Z,10.03
2018-07-27T17:26:22.892Z,10.23
2018-07-27T17:27:22.860Z,10.42
2018-07-27T17:29:15.700Z,10.52
2018-07-27T17:30:15.681Z,11.61
2018-07-27T17:32:08.542Z,11.31
2018-07-27T17:33:08.523Z,11.01
2018-07-27T17:35:01.334Z,11.61
2018-07-27T17:36:01.323Z,11.71
2018-07-27T17:37:54.196Z,11.30
2018-07-27T17:38:54.136Z,11.80
2018-07-27T17:40:46.969Z,12.19
2018-07-27T17:41:46.951Z,12.29
2018-07-27T17:43:39.808Z,11.60
2018-07-27T17:44:39.776Z,12.29
2018-07-27T17:46:32.622Z,13.07
2018-07-27T17:47:32.588Z,13.28
2018-07-27T17:49:25.468Z,13.46
2018-07-27T17:50:25.401Z,13.46
2018-07-27T17:52:18.259Z,13.17
2018-07-27T17:53:18.235Z,13.26
2018-07-27T17:55:11.072Z,13.26
2018-07-27T17:56:11.044Z,13.46
2018-07-27T17:58:03.908Z,14.44
2018-07-27T17:59:03.867Z,14.74
2018-07-27T18:00:56.704Z,14.34
2018-07-27T18:01:56.678Z,15.03
2018-07-27T18:03:49.559Z,14.24
2018-07-27T18:04:49.492Z,14.43
2018-07-27T18:06:42.346Z,14.53
2018-07-27T18:07:42.437Z,14.32
2018-07-27T18:09:35.159Z,14.82
2018-07-27T18:10:35.133Z,14.72
2018-07-27T18:12:27.969Z,14.81
2018-07-27T18:13:27.930Z,15.11
2018-07-27T18:15:20.789Z,15.70
2018-07-27T18:16:20.756Z,15.59
2018-07-27T18:18:13.599Z,15.89
2018-07-27T18:19:13.564Z,15.78
2018-07-27T18:21:06.395Z,16.17
2018-07-27T18:22:06.378Z,15.78
2018-07-27T18:23:59.244Z,15.97
2018-07-27T18:24:59.247Z,16.07
2018-07-27T18:26:52.046Z,16.26
2018-07-27T18:27:52.024Z,16.66
2018-07-27T18:29:44.881Z,16.85
2018-07-27T18:30:44.830Z,16.64
2018-07-27T18:32:37.669Z,16.85
2018-07-27T18:33:37.645Z,17.14
2018-07-27T18:35:30.498Z,17.62
2018-07-27T18:36:30.453Z,17.33
2018-07-27T18:38:23.297Z,17.61
2018-07-27T18:39:23.262Z,18.30
2018-07-27T18:41:16.118Z,18.98
2018-07-27T18:42:16.075Z,19.08
2018-07-27T18:44:08.947Z,19.38
2018-07-27T18:45:08.885Z,19.27